sensor_id;sensor_type;location;lat;lon;timestamp;pressure;altitude;pressure_sealevel;temperature;humidity
43217;BME280;71549;42.686;23.300;2024-02-21T00:00:42;95347.72;;;21.36;31.45
43217;BME280;71549;42.686;23.300;2024-02-21T00:02:44;95343.00;;;21.33;31.35
43217;BME280;71549;42.686;23.300;2024-02-21T00:04:46;95341.41;;;21.32;31.62
43217;BME280;71549;42.686;23.300;2024-02-21T00:06:47;95346.78;;;21.32;31.51
43217;BME280;71549;42.686;23.300;2024-02-21T00:08:49;95341.56;;;21.44;31.13
43217;BME280;71549;42.686;23.300;2024-02-21T00:10:51;95341.38;;;21.41;31.58
43217;BME280;71549;42.686;23.300;2024-02-21T00:12:55;95339.81;;;21.40;31.24
43217;BME280;71549;42.686;23.300;2024-02-21T00:14:57;95342.50;;;21.40;31.36
43217;BME280;71549;42.686;23.300;2024-02-21T00:16:59;95341.72;;;21.39;31.09
43217;BME280;71549;42.686;23.300;2024-02-21T00:19:01;95346.47;;;21.42;31.31
43217;BME280;71549;42.686;23.300;2024-02-21T00:21:03;95342.50;;;21.49;31.47
43217;BME280;71549;42.686;23.300;2024-02-21T00:23:06;95345.66;;;21.42;31.19
43217;BME280;71549;42.686;23.300;2024-02-21T00:25:08;95339.03;;;21.39;31.33
43217;BME280;71549;42.686;23.300;2024-02-21T00:27:09;95332.03;;;21.38;31.48
43217;BME280;71549;42.686;23.300;2024-02-21T00:29:11;95335.53;;;21.39;31.55
43217;BME280;71549;42.686;23.300;2024-02-21T00:31:13;95337.75;;;21.37;31.31
43217;BME280;71549;42.686;23.300;2024-02-21T00:33:15;95336.19;;;21.36;31.37
43217;BME280;71549;42.686;23.300;2024-02-21T00:35:16;95337.44;;;21.38;31.24
43217;BME280;71549;42.686;23.300;2024-02-21T00:37:18;95335.88;;;21.37;31.35
43217;BME280;71549;42.686;23.300;2024-02-21T00:39:20;95333.94;;;21.38;31.52
43217;BME280;71549;42.686;23.300;2024-02-21T00:41:22;95331.25;;;21.38;31.34
43217;BME280;71549;42.686;23.300;2024-02-21T00:43:24;95331.72;;;21.40;31.39
43217;BME280;71549;42.686;23.300;2024-02-21T00:45:26;95326.19;;;21.36;31.40
43217;BME280;71549;42.686;23.300;2024-02-21T00:47:29;95320.19;;;21.39;31.38
43217;BME280;71549;42.686;23.300;2024-02-21T00:49:31;95323.19;;;21.38;31.55
43217;BME280;71549;42.686;23.300;2024-02-21T00:51:33;95330.13;;;21.39;31.41
43217;BME280;71549;42.686;23.300;2024-02-21T00:53:35;95313.84;;;21.35;31.16
43217;BME280;71549;42.686;23.300;2024-02-21T00:55:38;95320.34;;;21.34;31.49
43217;BME280;71549;42.686;23.300;2024-02-21T00:57:40;95311.47;;;21.34;31.33
43217;BME280;71549;42.686;23.300;2024-02-21T00:59:42;95317.66;;;21.34;31.19
43217;BME280;71549;42.686;23.300;2024-02-21T01:01:43;95309.09;;;21.32;31.28
43217;BME280;71549;42.686;23.300;2024-02-21T01:03:47;95302.94;;;21.32;31.39
43217;BME280;71549;42.686;23.300;2024-02-21T01:05:49;95304.03;;;21.31;31.56
43217;BME280;71549;42.686;23.300;2024-02-21T01:07:50;95308.31;;;21.32;31.20
43217;BME280;71549;42.686;23.300;2024-02-21T01:09:52;95293.72;;;21.33;31.42
43217;BME280;71549;42.686;23.300;2024-02-21T01:11:54;95301.50;;;21.34;31.61
43217;BME280;71549;42.686;23.300;2024-02-21T01:13:56;95300.25;;;21.32;31.33
43217;BME280;71549;42.686;23.300;2024-02-21T01:15:58;95301.34;;;21.31;31.35
43217;BME280;71549;42.686;23.300;2024-02-21T01:18:00;95296.88;;;21.35;31.21
43217;BME280;71549;42.686;23.300;2024-02-21T01:20:05;95298.94;;;21.38;31.30
43217;BME280;71549;42.686;23.300;2024-02-21T01:22:07;95299.25;;;21.36;31.54
43217;BME280;71549;42.686;23.300;2024-02-21T01:24:09;95305.13;;;21.38;31.52
43217;BME280;71549;42.686;23.300;2024-02-21T01:26:11;95298.94;;;21.38;31.15
43217;BME280;71549;42.686;23.300;2024-02-21T01:28:15;95297.34;;;21.37;31.19
43217;BME280;71549;42.686;23.300;2024-02-21T01:30:18;95292.78;;;21.37;31.18
43217;BME280;71549;42.686;23.300;2024-02-21T01:32:20;95290.72;;;21.34;31.41
43217;BME280;71549;42.686;23.300;2024-02-21T01:34:21;95282.94;;;21.33;31.29
43217;BME280;71549;42.686;23.300;2024-02-21T01:36:24;95285.81;;;21.36;31.58
43217;BME280;71549;42.686;23.300;2024-02-21T01:38:26;95201.28;;;20.81;31.30
43217;BME280;71549;42.686;23.300;2024-02-21T01:40:29;95289.28;;;21.37;31.55
43217;BME280;71549;42.686;23.300;2024-02-21T01:42:31;95284.69;;;21.37;31.24
43217;BME280;71549;42.686;23.300;2024-02-21T01:44:33;95284.69;;;21.37;31.56
43217;BME280;71549;42.686;23.300;2024-02-21T01:46:35;95280.41;;;21.36;31.52
43217;BME280;71549;42.686;23.300;2024-02-21T01:48:37;95275.50;;;21.38;31.34
43217;BME280;71549;42.686;23.300;2024-02-21T01:50:39;95275.03;;;21.36;31.23
43217;BME280;71549;42.686;23.300;2024-02-21T01:52:43;95277.72;;;21.36;31.53
43217;BME280;71549;42.686;23.300;2024-02-21T01:54:48;95278.38;;;21.33;31.49
43217;BME280;71549;42.686;23.300;2024-02-21T01:56:51;95271.09;;;21.34;31.18
43217;BME280;71549;42.686;23.300;2024-02-21T01:58:55;95265.38;;;21.35;31.33
43217;BME280;71549;42.686;23.300;2024-02-21T02:00:57;95279.63;;;21.36;31.22
43217;BME280;71549;42.686;23.300;2024-02-21T02:03:00;95272.34;;;21.36;31.14
43217;BME280;71549;42.686;23.300;2024-02-21T02:05:03;95277.41;;;21.38;31.55
43217;BME280;71549;42.686;23.300;2024-02-21T02:07:07;95277.09;;;21.39;31.16
43217;BME280;71549;42.686;23.300;2024-02-21T02:09:11;95277.88;;;21.40;31.25
43217;BME280;71549;42.686;23.300;2024-02-21T02:11:13;95275.50;;;21.38;31.37
43217;BME280;71549;42.686;23.300;2024-02-21T02:13:16;95269.78;;;21.40;31.26
43217;BME280;71549;42.686;23.300;2024-02-21T02:15:18;95275.19;;;21.40;31.37
43217;BME280;71549;42.686;23.300;2024-02-21T02:17:20;95267.09;;;21.40;31.47
43217;BME280;71549;42.686;23.300;2024-02-21T02:19:21;95266.94;;;21.36;31.39
43217;BME280;71549;42.686;23.300;2024-02-21T02:21:28;95266.31;;;21.39;31.34
43217;BME280;71549;42.686;23.300;2024-02-21T02:23:33;95262.50;;;21.40;31.09
43217;BME280;71549;42.686;23.300;2024-02-21T02:25:35;95252.38;;;21.37;31.10
43217;BME280;71549;42.686;23.300;2024-02-21T02:27:42;95214.13;;;21.14;31.43
43217;BME280;71549;42.686;23.300;2024-02-21T02:29:45;95258.25;;;21.39;31.29
43217;BME280;71549;42.686;23.300;2024-02-21T02:31:46;95258.25;;;21.39;31.34
43217;BME280;71549;42.686;23.300;2024-02-21T02:33:48;95258.25;;;21.39;31.11
43217;BME280;71549;42.686;23.300;2024-02-21T02:35:50;95258.72;;;21.41;31.10
43217;BME280;71549;42.686;23.300;2024-02-21T02:37:52;95253.31;;;21.41;31.35
43217;BME280;71549;42.686;23.300;2024-02-21T02:39:56;95256.66;;;21.38;31.30
43217;BME280;71549;42.686;23.300;2024-02-21T02:41:58;95249.34;;;21.39;31.43
43217;BME280;71549;42.686;23.300;2024-02-21T02:44:00;95251.56;;;21.37;31.32
43217;BME280;71549;42.686;23.300;2024-02-21T02:46:02;95250.47;;;21.38;31.27
43217;BME280;71549;42.686;23.300;2024-02-21T02:48:04;95250.16;;;21.39;31.04
43217;BME280;71549;42.686;23.300;2024-02-21T02:50:07;95257.09;;;21.40;31.43
43217;BME280;71549;42.686;23.300;2024-02-21T02:52:09;95254.28;;;21.37;31.10
43217;BME280;71549;42.686;23.300;2024-02-21T02:54:11;95262.81;;;21.39;31.03
43217;BME280;71549;42.686;23.300;2024-02-21T02:56:15;95173.91;;;20.79;31.21
43217;BME280;71549;42.686;23.300;2024-02-21T02:58:17;95263.31;;;21.32;31.14
43217;BME280;71549;42.686;23.300;2024-02-21T03:00:20;95259.06;;;21.31;31.29
43217;BME280;71549;42.686;23.300;2024-02-21T03:02:22;95260.94;;;21.31;31.17
43217;BME280;71549;42.686;23.300;2024-02-21T03:04:24;95256.84;;;21.33;31.38
43217;BME280;71549;42.686;23.300;2024-02-21T03:06:26;95261.72;;;21.40;31.06
43217;BME280;71549;42.686;23.300;2024-02-21T03:08:27;95264.44;;;21.31;31.59
43217;BME280;71549;42.686;23.300;2024-02-21T03:10:29;95255.44;;;21.27;31.30
43217;BME280;71549;42.686;23.300;2024-02-21T03:12:33;95259.19;;;21.43;31.78
43217;BME280;71549;42.686;23.300;2024-02-21T03:14:35;95267.75;;;21.45;31.79
43217;BME280;71549;42.686;23.300;2024-02-21T03:16:37;95281.22;;;21.45;32.12
43217;BME280;71549;42.686;23.300;2024-02-21T03:18:39;95266.63;;;21.38;31.72
43217;BME280;71549;42.686;23.300;2024-02-21T03:20:43;95271.88;;;21.34;31.99
43217;BME280;71549;42.686;23.300;2024-02-21T03:22:45;95276.78;;;21.32;32.07
43217;BME280;71549;42.686;23.300;2024-02-21T03:24:47;95277.91;;;21.31;31.85
43217;BME280;71549;42.686;23.300;2024-02-21T03:26:49;95273.47;;;21.26;31.94
43217;BME280;71549;42.686;23.300;2024-02-21T03:28:52;95119.28;;;20.32;31.83
43217;BME280;71549;42.686;23.300;2024-02-21T03:30:54;95275.22;;;21.31;32.19
43217;BME280;71549;42.686;23.300;2024-02-21T03:32:56;95275.22;;;21.31;31.90
43217;BME280;71549;42.686;23.300;2024-02-21T03:34:57;95275.22;;;21.31;31.77
43217;BME280;71549;42.686;23.300;2024-02-21T03:36:59;95277.88;;;21.40;31.79
43217;BME280;71549;42.686;23.300;2024-02-21T03:39:01;95273.78;;;21.34;31.84
43217;BME280;71549;42.686;23.300;2024-02-21T03:41:04;95279.78;;;21.31;31.76
43217;BME280;71549;42.686;23.300;2024-02-21T03:43:06;95285.53;;;21.29;31.61
43217;BME280;71549;42.686;23.300;2024-02-21T03:45:09;95290.09;;;21.28;31.93
43217;BME280;71549;42.686;23.300;2024-02-21T03:47:11;95289.31;;;21.28;31.85
43217;BME280;71549;42.686;23.300;2024-02-21T03:49:13;95293.91;;;21.27;31.81
43217;BME280;71549;42.686;23.300;2024-02-21T03:51:15;95291.22;;;21.27;31.80
43217;BME280;71549;42.686;23.300;2024-02-21T03:53:18;95291.53;;;21.26;31.54
43217;BME280;71549;42.686;23.300;2024-02-21T03:55:19;95291.53;;;21.26;31.80
43217;BME280;71549;42.686;23.300;2024-02-21T03:57:21;95291.22;;;21.27;31.74
43217;BME280;71549;42.686;23.300;2024-02-21T03:59:22;95290.75;;;21.25;31.81
43217;BME280;71549;42.686;23.300;2024-02-21T04:01:26;95294.22;;;21.26;31.74
43217;BME280;71549;42.686;23.300;2024-02-21T04:03:28;95287.59;;;21.23;31.79
43217;BME280;71549;42.686;23.300;2024-02-21T04:05:30;95290.59;;;21.22;31.97
43217;BME280;71549;42.686;23.300;2024-02-21T04:07:32;95291.06;;;21.24;31.63
43217;BME280;71549;42.686;23.300;2024-02-21T04:09:34;95284.91;;;21.23;31.85
43217;BME280;71549;42.686;23.300;2024-02-21T04:11:36;95288.06;;;21.25;32.00
43217;BME280;71549;42.686;23.300;2024-02-21T04:13:38;95270.97;;;21.21;32.16
43217;BME280;71549;42.686;23.300;2024-02-21T04:15:40;95286.16;;;21.26;31.93
43217;BME280;71549;42.686;23.300;2024-02-21T04:17:43;95283.78;;;21.24;31.54
43217;BME280;71549;42.686;23.300;2024-02-21T04:19:45;95284.91;;;21.23;31.81
43217;BME280;71549;42.686;23.300;2024-02-21T04:21:46;95280.31;;;21.24;31.78
43217;BME280;71549;42.686;23.300;2024-02-21T04:23:48;95286.47;;;21.24;31.58
43217;BME280;71549;42.686;23.300;2024-02-21T04:25:51;95284.59;;;21.25;31.68
43217;BME280;71549;42.686;23.300;2024-02-21T04:27:53;95286.00;;;21.22;31.81
43217;BME280;71549;42.686;23.300;2024-02-21T04:29:55;95285.69;;;21.24;31.94
43217;BME280;71549;42.686;23.300;2024-02-21T04:31:57;95280.97;;;21.21;31.97
43217;BME280;71549;42.686;23.300;2024-02-21T04:34:00;95286.34;;;21.21;31.68
43217;BME280;71549;42.686;23.300;2024-02-21T04:36:04;95283.66;;;21.21;32.07
43217;BME280;71549;42.686;23.300;2024-02-21T04:38:06;95289.81;;;21.21;31.86
43217;BME280;71549;42.686;23.300;2024-02-21T04:40:08;95287.91;;;21.22;31.94
43217;BME280;71549;42.686;23.300;2024-02-21T04:42:10;95285.22;;;21.22;32.02
43217;BME280;71549;42.686;23.300;2024-02-21T04:44:13;95291.84;;;21.24;31.70
43217;BME280;71549;42.686;23.300;2024-02-21T04:46:15;95285.22;;;21.22;31.72
43217;BME280;71549;42.686;23.300;2024-02-21T04:48:17;95290.91;;;21.20;31.80
43217;BME280;71549;42.686;23.300;2024-02-21T04:50:19;95274.81;;;21.12;31.78
43217;BME280;71549;42.686;23.300;2024-02-21T04:52:21;95285.22;;;21.22;32.09
43217;BME280;71549;42.686;23.300;2024-02-21T04:54:22;95285.22;;;21.22;31.69
43217;BME280;71549;42.686;23.300;2024-02-21T04:56:24;95269.41;;;21.12;31.98
43217;BME280;71549;42.686;23.300;2024-02-21T04:58:26;95284.44;;;21.21;31.87
43217;BME280;71549;42.686;23.300;2024-02-21T05:00:28;95283.66;;;21.21;31.90
43217;BME280;71549;42.686;23.300;2024-02-21T05:02:30;95283.19;;;21.19;31.96
43217;BME280;71549;42.686;23.300;2024-02-21T05:04:32;95288.22;;;21.20;31.52
43217;BME280;71549;42.686;23.300;2024-02-21T05:06:38;95289.34;;;21.19;31.56
43217;BME280;71549;42.686;23.300;2024-02-21T05:08:40;95286.66;;;21.19;31.60
43217;BME280;71549;42.686;23.300;2024-02-21T05:10:42;95289.34;;;21.19;32.12
43217;BME280;71549;42.686;23.300;2024-02-21T05:12:44;95291.25;;;21.19;32.06
43217;BME280;71549;42.686;23.300;2024-02-21T05:14:47;95297.75;;;21.18;31.74
43217;BME280;71549;42.686;23.300;2024-02-21T05:16:49;95299.66;;;21.17;31.67
43217;BME280;71549;42.686;23.300;2024-02-21T05:18:50;95305.03;;;21.17;31.63
43217;BME280;71549;42.686;23.300;2024-02-21T05:20:52;95303.91;;;21.18;31.74
43217;BME280;71549;42.686;23.300;2024-02-21T05:22:56;95305.81;;;21.18;32.00
43217;BME280;71549;42.686;23.300;2024-02-21T05:24:58;95304.72;;;21.19;31.70
43217;BME280;71549;42.686;23.300;2024-02-21T05:27:00;95305.34;;;21.16;31.89
43217;BME280;71549;42.686;23.300;2024-02-21T05:29:02;95308.81;;;21.16;31.96
43217;BME280;71549;42.686;23.300;2024-02-21T05:31:04;95309.94;;;21.15;31.62
43217;BME280;71549;42.686;23.300;2024-02-21T05:33:06;95244.16;;;20.78;32.12
43217;BME280;71549;42.686;23.300;2024-02-21T05:35:08;95304.56;;;21.15;31.84
43217;BME280;71549;42.686;23.300;2024-02-21T05:37:11;95299.97;;;21.16;31.93
43217;BME280;71549;42.686;23.300;2024-02-21T05:39:14;95296.97;;;21.17;31.48
43217;BME280;71549;42.686;23.300;2024-02-21T05:41:16;95295.72;;;21.15;31.43
43217;BME280;71549;42.686;23.300;2024-02-21T05:43:18;95298.53;;;21.18;31.82
43217;BME280;71549;42.686;23.300;2024-02-21T05:45:20;95300.44;;;21.18;32.10
43217;BME280;71549;42.686;23.300;2024-02-21T05:47:23;95304.25;;;21.17;31.90
43217;BME280;71549;42.686;23.300;2024-02-21T05:49:25;95305.03;;;21.17;31.55
43217;BME280;71549;42.686;23.300;2024-02-21T05:51:27;95308.03;;;21.16;31.72
43217;BME280;71549;42.686;23.300;2024-02-21T05:53:30;95313.44;;;21.16;31.88
43217;BME280;71549;42.686;23.300;2024-02-21T05:55:33;95322.91;;;21.22;32.11
43217;BME280;71549;42.686;23.300;2024-02-21T05:57:35;95321.66;;;21.19;31.94
43217;BME280;71549;42.686;23.300;2024-02-21T05:59:38;95317.84;;;21.20;32.31
43217;BME280;71549;42.686;23.300;2024-02-21T06:01:42;95320.88;;;21.19;32.44
43217;BME280;71549;42.686;23.300;2024-02-21T06:03:43;95235.97;;;20.65;32.03
43217;BME280;71549;42.686;23.300;2024-02-21T06:05:45;95321.97;;;21.18;32.35
43217;BME280;71549;42.686;23.300;2024-02-21T06:07:47;95324.66;;;21.18;32.54
43217;BME280;71549;42.686;23.300;2024-02-21T06:09:49;95329.72;;;21.19;32.31
43217;BME280;71549;42.686;23.300;2024-02-21T06:11:53;95328.94;;;21.19;32.20
43217;BME280;71549;42.686;23.300;2024-02-21T06:13:55;95333.53;;;21.18;32.08
43217;BME280;71549;42.686;23.300;2024-02-21T06:15:57;95334.81;;;21.21;32.16
43217;BME280;71549;42.686;23.300;2024-02-21T06:17:59;95333.34;;;21.32;31.84
43217;BME280;71549;42.686;23.300;2024-02-21T06:20:01;95333.78;;;21.43;31.57
43217;BME280;71549;42.686;23.300;2024-02-21T06:22:03;95332.81;;;21.56;31.97
43217;BME280;71549;42.686;23.300;2024-02-21T06:24:08;95345.38;;;21.43;31.59
43217;BME280;71549;42.686;23.300;2024-02-21T06:26:10;95339.19;;;21.34;31.92
43217;BME280;71549;42.686;23.300;2024-02-21T06:28:13;95342.19;;;21.33;32.07
43217;BME280;71549;42.686;23.300;2024-02-21T06:30:15;95342.66;;;21.35;31.56
43217;BME280;71549;42.686;23.300;2024-02-21T06:32:17;95342.03;;;21.46;32.12
43217;BME280;71549;42.686;23.300;2024-02-21T06:34:19;95348.03;;;21.35;32.20
43217;BME280;71549;42.686;23.300;2024-02-21T06:36:22;95345.22;;;21.31;31.89
43217;BME280;71549;42.686;23.300;2024-02-21T06:38:24;95347.44;;;21.29;31.99
43217;BME280;71549;42.686;23.300;2024-02-21T06:40:26;95351.72;;;21.30;31.89
43217;BME280;71549;42.686;23.300;2024-02-21T06:42:28;95359.00;;;21.30;31.94
43217;BME280;71549;42.686;23.300;2024-02-21T06:44:31;95354.41;;;21.30;32.05
43217;BME280;71549;42.686;23.300;2024-02-21T06:46:37;95365.16;;;21.30;31.80
43217;BME280;71549;42.686;23.300;2024-02-21T06:48:38;95361.69;;;21.30;31.75
43217;BME280;71549;42.686;23.300;2024-02-21T06:50:40;95359.31;;;21.28;31.67
43217;BME280;71549;42.686;23.300;2024-02-21T06:52:42;95360.25;;;21.32;31.76
43217;BME280;71549;42.686;23.300;2024-02-21T06:54:44;95363.25;;;21.31;31.69
43217;BME280;71549;42.686;23.300;2024-02-21T06:56:47;95357.09;;;21.30;31.86
43217;BME280;71549;42.686;23.300;2024-02-21T06:58:48;95358.69;;;21.31;31.41
43217;BME280;71549;42.686;23.300;2024-02-21T07:00:51;95366.78;;;21.31;31.96
43217;BME280;71549;42.686;23.300;2024-02-21T07:02:53;95360.56;;;21.31;31.99
43217;BME280;71549;42.686;23.300;2024-02-21T07:04:55;95362.16;;;21.32;31.91
43217;BME280;71549;42.686;23.300;2024-02-21T07:06:57;95367.25;;;21.33;31.99
43217;BME280;71549;42.686;23.300;2024-02-21T07:08:59;95370.25;;;21.32;31.72
43217;BME280;71549;42.686;23.300;2024-02-21T07:11:01;95370.25;;;21.32;31.72
43217;BME280;71549;42.686;23.300;2024-02-21T07:13:03;95366.44;;;21.33;31.43
43217;BME280;71549;42.686;23.300;2024-02-21T07:15:06;95375.31;;;21.33;31.82
43217;BME280;71549;42.686;23.300;2024-02-21T07:17:09;95369.28;;;21.36;31.87
43217;BME280;71549;42.686;23.300;2024-02-21T07:19:11;95369.44;;;21.40;31.85
43217;BME280;71549;42.686;23.300;2024-02-21T07:21:13;95364.03;;;21.40;31.52
43217;BME280;71549;42.686;23.300;2024-02-21T07:23:15;95375.59;;;21.40;31.42
43217;BME280;71549;42.686;23.300;2024-02-21T07:25:17;95369.91;;;21.42;31.91
43217;BME280;71549;42.686;23.300;2024-02-21T07:27:20;95376.88;;;21.43;31.67
43217;BME280;71549;42.686;23.300;2024-02-21T07:29:22;95380.38;;;21.43;32.22
43217;BME280;71549;42.686;23.300;2024-02-21T07:31:24;95372.75;;;21.54;31.62
43217;BME280;71549;42.686;23.300;2024-02-21T07:33:27;95377.94;;;21.59;32.05
43217;BME280;71549;42.686;23.300;2024-02-21T07:35:31;95375.75;;;21.53;31.84
43217;BME280;71549;42.686;23.300;2024-02-21T07:37:33;95372.78;;;21.45;31.66
43217;BME280;71549;42.686;23.300;2024-02-21T07:39:36;95378.28;;;21.40;32.08
43217;BME280;71549;42.686;23.300;2024-02-21T07:41:38;95376.72;;;21.48;31.67
43217;BME280;71549;42.686;23.300;2024-02-21T07:43:41;95367.34;;;21.54;31.62
43217;BME280;71549;42.686;23.300;2024-02-21T07:45:44;95371.66;;;21.46;31.57
43217;BME280;71549;42.686;23.300;2024-02-21T07:47:46;95375.78;;;21.44;31.91
43217;BME280;71549;42.686;23.300;2024-02-21T07:49:49;95373.88;;;21.44;31.71
43217;BME280;71549;42.686;23.300;2024-02-21T07:51:51;95371.19;;;21.44;31.52
43217;BME280;71549;42.686;23.300;2024-02-21T07:53:53;95365.78;;;21.44;31.81
43217;BME280;71549;42.686;23.300;2024-02-21T07:55:56;95370.72;;;21.42;31.86
43217;BME280;71549;42.686;23.300;2024-02-21T07:57:57;95366.59;;;21.45;31.81
43217;BME280;71549;42.686;23.300;2024-02-21T07:59:59;95362.00;;;21.45;31.88
43217;BME280;71549;42.686;23.300;2024-02-21T08:02:00;95363.56;;;21.46;31.43
43217;BME280;71549;42.686;23.300;2024-02-21T08:04:03;95358.84;;;21.43;31.69
43217;BME280;71549;42.686;23.300;2024-02-21T08:06:11;95363.56;;;21.46;31.54
43217;BME280;71549;42.686;23.300;2024-02-21T08:08:13;95376.25;;;21.46;31.84
43217;BME280;71549;42.686;23.300;2024-02-21T08:10:18;95369.44;;;21.49;31.43
43217;BME280;71549;42.686;23.300;2024-02-21T08:12:20;95368.19;;;21.46;31.57
43217;BME280;71549;42.686;23.300;2024-02-21T08:14:23;95367.41;;;21.45;31.66
43217;BME280;71549;42.686;23.300;2024-02-21T08:16:26;95367.06;;;21.47;31.55
43217;BME280;71549;42.686;23.300;2024-02-21T08:18:28;95356.44;;;21.51;31.68
43217;BME280;71549;42.686;23.300;2024-02-21T08:20:30;95364.03;;;21.49;31.67
43217;BME280;71549;42.686;23.300;2024-02-21T08:22:34;95367.19;;;21.51;31.67
43217;BME280;71549;42.686;23.300;2024-02-21T08:24:39;95364.97;;;21.53;31.41
43217;BME280;71549;42.686;23.300;2024-02-21T08:26:41;95369.06;;;21.59;31.81
43217;BME280;71549;42.686;23.300;2024-02-21T08:28:43;95368.28;;;21.58;31.70
43217;BME280;71549;42.686;23.300;2024-02-21T08:30:45;95365.59;;;21.58;31.68
43217;BME280;71549;42.686;23.300;2024-02-21T08:32:48;95362.94;;;21.50;31.50
43217;BME280;71549;42.686;23.300;2024-02-21T08:34:50;95363.25;;;21.48;31.53
43217;BME280;71549;42.686;23.300;2024-02-21T08:36:52;95366.28;;;21.46;31.44
43217;BME280;71549;42.686;23.300;2024-02-21T08:38:55;95367.41;;;21.45;31.44
43217;BME280;71549;42.686;23.300;2024-02-21T08:40:57;95368.50;;;21.44;31.72
43217;BME280;71549;42.686;23.300;2024-02-21T08:42:59;95363.41;;;21.43;31.41
43217;BME280;71549;42.686;23.300;2024-02-21T08:45:01;95357.88;;;21.39;31.61
43217;BME280;71549;42.686;23.300;2024-02-21T08:47:03;95367.41;;;21.45;31.49
43217;BME280;71549;42.686;23.300;2024-02-21T08:49:06;95363.09;;;21.44;31.30
43217;BME280;71549;42.686;23.300;2024-02-21T08:51:08;95369.63;;;21.43;31.36
43217;BME280;71549;42.686;23.300;2024-02-21T08:53:10;95361.19;;;21.45;31.51
43217;BME280;71549;42.686;23.300;2024-02-21T08:55:15;95365.00;;;21.44;31.55
43217;BME280;71549;42.686;23.300;2024-02-21T08:57:17;95371.97;;;21.45;31.27
43217;BME280;71549;42.686;23.300;2024-02-21T08:59:19;95371.50;;;21.43;31.18
43217;BME280;71549;42.686;23.300;2024-02-21T09:01:21;95361.53;;;21.43;31.53
43217;BME280;71549;42.686;23.300;2024-02-21T09:03:23;95365.63;;;21.41;31.53
43217;BME280;71549;42.686;23.300;2024-02-21T09:05:25;95368.31;;;21.41;31.21
43217;BME280;71549;42.686;23.300;2024-02-21T09:07:27;95366.44;;;21.41;31.23
43217;BME280;71549;42.686;23.300;2024-02-21T09:09:29;95372.13;;;21.40;31.39
43217;BME280;71549;42.686;23.300;2024-02-21T09:11:35;95374.81;;;21.40;31.38
43217;BME280;71549;42.686;23.300;2024-02-21T09:13:36;95380.50;;;21.38;31.46
43217;BME280;71549;42.686;23.300;2024-02-21T09:15:38;95375.13;;;21.38;31.38
43217;BME280;71549;42.686;23.300;2024-02-21T09:17:40;95373.56;;;21.37;31.24
43217;BME280;71549;42.686;23.300;2024-02-21T09:19:43;95371.19;;;21.36;31.34
43217;BME280;71549;42.686;23.300;2024-02-21T09:21:45;95377.34;;;21.36;31.33
43217;BME280;71549;42.686;23.300;2024-02-21T09:23:47;95377.03;;;21.38;31.05
43217;BME280;71549;42.686;23.300;2024-02-21T09:25:49;95375.44;;;21.37;31.49
43217;BME280;71549;42.686;23.300;2024-02-21T09:27:53;95364.66;;;21.37;31.30
43217;BME280;71549;42.686;23.300;2024-02-21T09:29:56;95366.28;;;21.38;31.11
43217;BME280;71549;42.686;23.300;2024-02-21T09:31:58;95358.50;;;21.36;31.17
43217;BME280;71549;42.686;23.300;2024-02-21T09:34:00;95370.06;;;21.37;31.46
43217;BME280;71549;42.686;23.300;2024-02-21T09:36:03;95373.88;;;21.36;31.12
43217;BME280;71549;42.686;23.300;2024-02-21T09:38:05;95365.50;;;21.37;31.45
43217;BME280;71549;42.686;23.300;2024-02-21T09:40:08;95370.88;;;21.37;31.03
43217;BME280;71549;42.686;23.300;2024-02-21T09:42:11;95370.06;;;21.37;31.06
43217;BME280;71549;42.686;23.300;2024-02-21T09:44:15;95370.06;;;21.37;31.06
43217;BME280;71549;42.686;23.300;2024-02-21T09:46:18;95365.50;;;21.37;31.28
43217;BME280;71549;42.686;23.300;2024-02-21T09:48:25;95366.28;;;21.38;31.23
43217;BME280;71549;42.686;23.300;2024-02-21T09:50:29;95361.50;;;21.35;31.08
43217;BME280;71549;42.686;23.300;2024-02-21T09:52:34;95368.19;;;21.37;31.21
43217;BME280;71549;42.686;23.300;2024-02-21T09:54:38;95370.06;;;21.37;31.35
43217;BME280;71549;42.686;23.300;2024-02-21T09:56:42;95368.97;;;21.38;31.19
43217;BME280;71549;42.686;23.300;2024-02-21T09:58:44;95361.19;;;21.36;31.11
43217;BME280;71549;42.686;23.300;2024-02-21T10:00:47;95360.88;;;21.38;30.98
43217;BME280;71549;42.686;23.300;2024-02-21T10:02:49;95360.09;;;21.37;31.35
43217;BME280;71549;42.686;23.300;2024-02-21T10:04:51;95356.28;;;21.38;31.34
43217;BME280;71549;42.686;23.300;2024-02-21T10:06:53;95356.28;;;21.38;31.13
43217;BME280;71549;42.686;23.300;2024-02-21T10:08:55;95362.44;;;21.39;31.15
43217;BME280;71549;42.686;23.300;2024-02-21T10:10:57;95358.19;;;21.38;31.39
43217;BME280;71549;42.686;23.300;2024-02-21T10:13:01;95355.50;;;21.38;31.12
43217;BME280;71549;42.686;23.300;2024-02-21T10:15:03;95347.91;;;21.31;31.14
43217;BME280;71549;42.686;23.300;2024-02-21T10:17:07;95355.81;;;21.36;31.09
43217;BME280;71549;42.686;23.300;2024-02-21T10:19:16;95348.50;;;21.37;31.12
43217;BME280;71549;42.686;23.300;2024-02-21T10:21:18;95345.81;;;21.37;31.35
43217;BME280;71549;42.686;23.300;2024-02-21T10:23:20;95346.16;;;21.35;31.14
43217;BME280;71549;42.686;23.300;2024-02-21T10:25:23;95340.31;;;21.33;31.48
43217;BME280;71549;42.686;23.300;2024-02-21T10:27:25;95341.56;;;21.36;31.06
43217;BME280;71549;42.686;23.300;2024-02-21T10:29:27;95328.72;;;21.33;31.13
43217;BME280;71549;42.686;23.300;2024-02-21T10:31:29;95324.16;;;21.33;31.19
43217;BME280;71549;42.686;23.300;2024-02-21T10:33:32;95316.41;;;21.32;31.49
43217;BME280;71549;42.686;23.300;2024-02-21T10:35:33;95317.97;;;21.33;31.28
43217;BME280;71549;42.686;23.300;2024-02-21T10:37:35;95307.53;;;21.31;31.35
43217;BME280;71549;42.686;23.300;2024-02-21T10:39:38;95219.50;;;20.76;31.21